Airfield :
LOGIN :

Register | Disclaimer

   EN    FR    IT 

 










Legend :    VFR   Marginal VFR   IFR   Intensive IFR   Very Intensive IFR
Visi :
Ceiling :
>= 8 km
>= 3000ft
5 to 8 km
1000 to 3000 ft
1500m to 5 km
500 to 1000 ft
800 to 1500m
200 to 500 ft
< 800m
< 200 ft
Symbols :   Thunderstorms  Fog  Heavy snow  Heavy precipitations  Wind > 20 kt
SIGMETs :     Misc.  Thunderstorms  Icing  Turbulence  Mountain Waves  Volcanic Ashes






- Airport Elevation : 187 ft


ETNW - Wunstorf AB

CURRENT METAR :
  • 291020Z 26006KT 9999 FEW020 13/08 Q1002 BLU+BLU+

EXPIRED METARs :
  • 290920Z 27007KT 9999 FEW015 11/08 Q1002 BLU+BLU+
  • 290820Z 22009KT 9000 FEW014 10/08 Q1001 BLU+BLU+

TAF TAF ETNW
Valid from the 29 at 05:00 until the 30 at 05:00 UTC


290414Z 2905/3005 23005KT 9999 NSW SCT030
TEMPO 2905/2907 VRB03KT 3000 BR SCT003 BY ETGL



MET'MAP, your aeronautical weather chart ! - Copyright ORBIFLY December 2007 - Disclaimer

ORBIFLY MET'MAP TEAM :

Programming & Development : Alexandra Zaïnal
Original concept : Baudouin d'Aumeries
Technical & hardware support : Manuel Goepfert
Assistance : Marc-Olivier Méhu




SOURCES & CREDITS :

   NOAA